Time;durP1;ratioP1;P1;durP2;ratioP2;P2;SDS_P1;SDS_P2;PMS_P1;PMS_P2;Temp;Humidity;BMP_temperature;BMP_pressure;BME280_temperature;BME280_humidity;BME280_pressure;Samples;Min_cycle;Max_cycle;Signal;HPM_P1;HPM_P2
2023/03/17 00:01:54;;;;;;;368.83;113.23;;;4.70;99.90;;;4.81;91.41;99392.03;4948305;28;20238;-79
2023/03/17 00:04:24;;;;;;;397.97;190.13;;;4.90;99.90;;;5.02;90.58;99417.66;4943630;28;20230;-78
2023/03/17 00:06:58;;;;;;;362.00;107.10;;;;;;;5.07;90.73;99413.38;4950355;28;20233;-79
2023/03/17 00:09:26;;;;;;;374.27;116.93;;;5.00;99.90;;;4.90;90.94;99404.38;4945758;28;20672;-79
2023/03/17 00:11:53;;;;;;;366.67;109.23;;;4.90;99.90;;;4.86;90.58;99391.22;4949508;28;20233;-79
2023/03/17 00:14:20;;;;;;;363.83;110.03;;;4.90;99.90;;;4.80;90.61;99387.63;4940747;28;20297;-79
2023/03/17 00:16:49;;;;;;;382.97;118.60;;;5.30;99.90;;;4.83;90.87;99390.31;4950423;28;20264;-80
2023/03/17 00:19:35;;;;;;;383.10;120.33;;;4.90;99.90;;;4.78;91.45;99398.94;4939797;28;20320;-79
2023/03/17 00:22:05;;;;;;;375.80;110.70;;;4.80;99.90;;;4.94;90.52;99398.31;4942767;28;20318;-78
2023/03/17 00:24:32;;;;;;;383.57;120.67;;;4.90;99.90;;;4.90;90.28;99387.78;4945030;28;20265;-79
2023/03/17 00:26:59;;;;;;;365.27;109.40;;;5.40;99.90;;;4.81;90.37;99376.31;4945925;28;20264;-79
2023/03/17 00:29:26;;;;;;;373.60;114.13;;;4.90;99.90;;;4.87;90.80;99386.00;4947854;28;20285;-79
2023/03/17 00:31:56;;;;;;;375.30;116.80;;;5.30;99.90;;;4.97;90.37;99385.28;4946517;28;20237;-79
2023/03/17 00:34:23;;;;;;;364.77;106.83;;;5.00;99.90;;;4.88;90.91;99389.50;4946080;28;20644;-78
2023/03/17 00:36:51;;;;;;;383.57;116.30;;;;;;;4.93;90.42;99398.31;4945464;28;20245;-79
2023/03/17 00:39:18;;;;;;;377.57;119.23;;;4.90;99.90;;;4.86;91.03;99396.44;4946718;28;20340;-79
2023/03/17 00:41:45;;;;;;;365.20;114.13;;;4.90;99.90;;;4.91;90.88;99402.63;4948807;28;20288;-78
2023/03/17 00:44:16;;;;;;;365.43;116.33;;;;;;;4.86;91.36;99399.94;4950604;28;20256;-79
2023/03/17 00:46:43;;;;;;;372.43;115.57;;;4.90;99.90;;;4.82;91.51;99408.63;4946246;28;20242;-78
2023/03/17 00:49:20;;;;;;;378.67;119.63;;;4.90;99.90;;;4.81;91.71;99407.75;4944735;28;20237;-79
2023/03/17 00:51:48;;;;;;;364.73;114.83;;;4.80;99.90;;;4.87;91.31;99396.47;4944565;28;20233;-78
2023/03/17 00:54:18;;;;;;;368.53;114.23;;;4.90;99.90;;;5.01;90.92;99402.78;4943300;28;20237;-80
2023/03/17 00:56:46;;;;;;;368.30;111.60;;;5.00;99.90;;;4.93;91.34;99406.16;4949637;28;20735;-79
2023/03/17 00:59:19;;;;;;;367.90;113.03;;;4.90;99.90;;;4.92;90.95;99404.41;4957225;28;20320;-79
2023/03/17 01:01:46;;;;;;;367.93;112.87;;;5.00;99.90;;;4.90;91.13;99403.50;4930031;28;20312;-79
2023/03/17 01:04:14;;;;;;;366.70;114.83;;;4.90;99.90;;;4.79;91.36;99398.09;4946975;28;20237;-79
2023/03/17 01:06:42;;;;;;;361.93;112.97;;;4.90;99.90;;;4.75;91.36;99393.66;4948034;28;20348;-78
2023/03/17 01:09:15;;;;;;;359.73;112.90;;;4.80;99.90;;;4.79;91.08;99391.13;4949201;28;20245;-78
2023/03/17 01:11:43;;;;;;;365.30;115.03;;;4.90;99.90;;;5.10;90.86;99399.44;4947134;28;20245;-78
2023/03/17 01:14:14;;;;;;;361.80;113.77;;;5.20;99.90;;;5.23;90.31;99414.50;4950214;28;20253;-79
2023/03/17 01:16:41;;;;;;;357.87;110.53;;;5.20;99.90;;;5.18;89.84;99403.03;4943469;28;20324;-79
2023/03/17 01:19:12;;;;;;;368.40;115.77;;;5.20;99.90;;;4.99;90.18;99390.53;4947318;28;20333;-79
2023/03/17 01:21:40;;;;;;;370.27;117.37;;;;;;;4.93;90.20;99382.59;4941811;28;20234;-79
2023/03/17 01:24:08;;;;;;;367.40;124.37;;;4.90;99.90;;;4.88;90.59;99385.13;4947542;28;20336;-79
2023/03/17 01:26:35;;;;;;;363.10;113.00;;;4.90;99.90;;;4.85;90.69;99386.84;4948916;28;20289;-79
2023/03/17 01:29:03;;;;;;;381.67;123.17;;;4.80;99.90;;;4.74;91.07;99382.31;4940367;28;20285;-79
2023/03/17 01:31:30;;;;;;;362.77;113.60;;;4.90;99.90;;;4.90;90.67;99382.53;4947457;28;20265;-79
2023/03/17 01:33:57;;;;;;;364.77;116.10;;;4.90;99.90;;;4.86;90.43;99362.41;4946066;28;20233;-79
2023/03/17 01:36:25;;;;;;;389.53;126.73;;;3.30;99.90;;;5.13;89.87;99357.53;4946805;28;20260;-79
2023/03/17 01:38:52;;;;;;;372.87;114.53;;;5.10;99.90;;;5.26;89.28;99354.25;4945606;29;20718;-79
2023/03/17 01:41:20;;;;;;;377.87;120.93;;;;;;;4.97;89.60;99339.84;4946223;28;20253;-79
2023/03/17 01:43:47;;;;;;;364.97;114.80;;;5.10;99.90;;;5.01;89.62;99346.91;4944980;28;20229;-79
2023/03/17 01:46:34;;;;;;;354.50;109.23;;;5.00;99.90;;;5.12;89.64;99355.78;4947262;28;20245;-79
2023/03/17 01:49:30;;;;;;;379.43;118.50;;;5.10;99.90;;;5.17;88.90;99354.09;4948374;28;20241;-79
2023/03/17 01:52:07;;;;;;;370.30;126.43;;;5.10;99.90;;;5.03;89.12;99351.28;4959429;28;20242;-79
2023/03/17 01:54:49;;;;;;;375.80;120.10;;;5.10;99.90;;;4.97;89.24;99345.97;4946783;28;20264;-79
2023/03/17 01:57:52;;;;;;;363.57;112.27;;;5.10;99.90;;;5.02;89.44;99346.03;4941284;28;20230;-80
2023/03/17 02:00:23;;;;;;;365.87;113.10;;;5.00;99.90;;;5.05;89.35;99348.69;4938456;28;20245;-79
2023/03/17 02:02:54;;;;;;;366.57;114.63;;;5.10;99.90;;;5.10;88.94;99340.03;4945600;28;20284;-78
2023/03/17 02:05:28;;;;;;;367.90;112.03;;;5.10;99.90;;;5.01;89.50;99352.13;4943594;28;20259;-81
2023/03/17 02:07:56;;;;;;;378.87;123.40;;;5.10;99.90;;;5.05;89.13;99344.34;4941752;29;20237;-79
2023/03/17 02:10:27;;;;;;;369.93;112.87;;;5.10;99.90;;;5.13;88.89;99347.06;4951172;28;20324;-79
2023/03/17 02:12:58;;;;;;;421.37;151.87;;;5.20;99.90;;;5.15;88.42;99337.47;4942919;28;20237;-80
2023/03/17 02:15:36;;;;;;;422.23;150.67;;;5.00;99.90;;;4.97;88.70;99335.50;4945490;28;20258;-79
2023/03/17 02:18:04;;;;;;;367.70;117.90;;;5.00;99.90;;;4.96;88.70;99330.22;4952044;28;20237;-78
2023/03/17 02:20:31;;;;;;;366.33;114.03;;;5.00;99.90;;;4.97;88.20;99330.25;4951668;28;20261;-78
2023/03/17 02:22:59;;;;;;;356.13;112.63;;;4.90;99.90;;;4.83;88.71;99321.31;4954312;28;20245;-79
2023/03/17 02:25:29;;;;;;;362.23;117.17;;;4.80;99.90;;;4.79;88.64;99323.03;4944559;28;20254;-78
2023/03/17 02:28:02;;;;;;;374.93;120.40;;;5.30;99.90;;;4.73;88.80;99319.44;4949213;28;20237;-79
2023/03/17 02:30:31;;;;;;;370.67;116.90;;;4.70;99.90;;;4.69;89.13;99328.09;4949960;28;20313;-79
2023/03/17 02:32:58;;;;;;;358.90;112.27;;;4.70;99.90;;;4.63;89.35;99331.50;4952742;28;20241;-79
2023/03/17 02:35:26;;;;;;;373.60;115.47;;;7.70;99.90;;;4.79;89.19;99332.63;4951534;28;20261;-78
2023/03/17 02:37:53;;;;;;;372.40;115.27;;;4.70;99.90;;;4.72;89.06;99328.16;4950015;28;20737;-79
2023/03/17 02:40:20;;;;;;;369.87;115.43;;;4.70;99.90;;;4.56;89.37;99321.81;4952007;28;20332;-79
2023/03/17 02:42:48;;;;;;;371.07;116.50;;;4.50;99.90;;;4.45;89.64;99313.78;4947901;28;20308;-78
2023/03/17 02:45:15;;;;;;;360.33;105.43;;;;;;;4.82;89.10;99324.81;4950432;28;20241;-79
2023/03/17 02:47:43;;;;;;;364.07;110.43;;;;;;;4.82;88.76;99311.72;4932313;28;20334;-79
2023/03/17 02:50:22;;;;;;;363.07;108.17;;;4.90;99.90;;;4.75;88.60;99296.78;4947702;29;20346;-79
2023/03/17 02:52:50;;;;;;;367.63;112.60;;;;;;;4.72;88.44;99297.59;4949532;28;20260;-78
2023/03/17 02:55:17;;;;;;;351.63;105.10;;;;;;;4.55;88.65;99295.59;4947492;28;20364;-79
2023/03/17 02:57:45;;;;;;;375.57;117.03;;;;;;;4.48;89.11;99307.72;4947744;28;20252;-79
2023/03/17 03:00:13;;;;;;;362.17;110.50;;;4.50;99.90;;;4.32;89.24;99300.50;4947089;28;20342;-80
2023/03/17 03:02:40;;;;;;;369.60;110.00;;;4.40;99.90;;;4.36;89.40;99320.63;4951414;28;20240;-79
2023/03/17 03:05:09;;;;;;;355.10;108.30;;;4.50;99.90;;;4.32;89.42;99319.69;4949612;29;20332;-79
2023/03/17 03:07:36;;;;;;;362.23;109.10;;;4.40;99.90;;;4.33;90.15;99328.41;4951052;28;20234;-80
2023/03/17 03:10:04;;;;;;;365.00;110.40;;;4.40;99.90;;;4.35;90.31;99329.31;4946740;28;20257;-78
2023/03/17 03:12:32;;;;;;;367.10;113.03;;;4.30;99.90;;;4.26;90.34;99331.78;4949754;28;20241;-78
2023/03/17 03:14:59;;;;;;;352.50;105.87;;;4.60;99.90;;;4.11;90.79;99327.19;4947255;28;20289;-79
2023/03/17 03:17:26;;;;;;;365.40;110.77;;;4.20;99.90;;;4.22;90.76;99346.56;4945582;28;20320;-78
2023/03/17 03:19:54;;;;;;;362.87;113.23;;;4.20;99.90;;;4.15;90.89;99329.88;4943292;28;20290;-78
2023/03/17 03:22:21;;;;;;;363.53;109.07;;;4.30;99.90;;;4.07;91.50;99323.63;4945838;28;20233;-78
2023/03/17 03:24:48;;;;;;;367.70;112.53;;;4.10;99.90;;;4.08;91.36;99314.06;4947302;28;20316;-79
2023/03/17 03:27:15;;;;;;;359.53;103.20;;;4.10;99.90;;;3.94;91.13;99308.59;4949308;28;20274;-79
2023/03/17 03:29:42;;;;;;;363.80;106.77;;;4.10;99.90;;;3.85;91.64;99321.47;4945576;28;20237;-79
2023/03/17 03:32:10;;;;;;;357.03;103.60;;;;;;;3.99;91.65;99334.81;4948677;28;20230;-79
2023/03/17 03:34:37;;;;;;;364.00;109.53;;;4.00;99.90;;;4.12;91.36;99336.78;4952487;28;20308;-78
2023/03/17 03:37:04;;;;;;;370.77;113.20;;;4.20;99.90;;;3.98;91.72;99333.06;4951669;28;20299;-79
2023/03/17 03:39:31;;;;;;;363.97;107.50;;;4.00;99.90;;;3.97;92.19;99326.94;4947144;28;20313;-79
2023/03/17 03:41:59;;;;;;;360.60;104.40;;;4.00;99.90;;;3.96;91.92;99329.53;4947634;28;20228;-79
2023/03/17 03:44:26;;;;;;;371.87;108.30;;;4.40;99.90;;;3.78;92.06;99330.94;4944282;28;20234;-79
2023/03/17 03:46:53;;;;;;;358.67;101.10;;;;;;;3.70;92.50;99336.88;4941415;28;20268;-78
2023/03/17 03:49:23;;;;;;;362.43;101.30;;;3.80;99.90;;;3.71;92.76;99341.25;4949281;28;20379;-78
2023/03/17 03:51:50;;;;;;;360.53;104.70;;;3.80;99.90;;;3.64;92.96;99344.59;4945521;28;20281;-78
2023/03/17 03:54:17;;;;;;;362.27;105.87;;;3.80;99.90;;;3.48;93.40;99346.91;4962262;28;20321;-78
2023/03/17 03:56:44;;;;;;;362.87;104.93;;;3.50;99.90;;;3.43;93.58;99356.41;4951583;28;20430;-78
2023/03/17 03:59:11;;;;;;;361.33;105.27;;;3.50;99.90;;;3.38;94.12;99351.94;4953654;28;20321;-79
2023/03/17 04:01:39;;;;;;;352.03;103.07;;;;;;;3.33;94.19;99358.78;4947981;28;20248;-78
2023/03/17 04:04:06;;;;;;;363.97;104.90;;;3.40;99.90;;;3.25;94.80;99361.25;4946778;28;20236;-79
2023/03/17 04:06:33;;;;;;;361.63;104.77;;;3.30;99.90;;;3.22;95.20;99372.53;4942684;28;20294;-78
2023/03/17 04:09:00;;;;;;;359.53;98.17;;;3.30;99.90;;;3.19;95.38;99376.78;4944705;28;20230;-79
2023/03/17 04:11:28;;;;;;;360.17;100.63;;;3.40;99.90;;;3.08;95.83;99378.28;4949053;28;20266;-79
2023/03/17 04:13:55;;;;;;;354.60;102.50;;;4.90;99.90;;;3.21;95.79;99370.75;4943459;28;20246;-78
2023/03/17 04:16:22;;;;;;;376.17;109.60;;;;;;;3.12;96.04;99385.34;4950099;28;20254;-78
2023/03/17 04:18:50;;;;;;;361.30;98.17;;;3.20;99.90;;;3.08;96.67;99391.34;4949198;28;20296;-78
2023/03/17 04:21:17;;;;;;;365.60;102.30;;;3.10;99.90;;;3.09;96.78;99385.28;4948439;28;20361;-78
2023/03/17 04:23:45;;;;;;;368.30;102.97;;;3.60;99.90;;;3.08;96.96;99388.75;4948386;28;20332;-79
2023/03/17 04:26:12;;;;;;;354.60;95.33;;;3.00;99.90;;;3.02;97.23;99386.88;4945298;28;20238;-78
2023/03/17 04:28:39;;;;;;;348.13;93.57;;;3.00;99.90;;;2.96;97.49;99384.13;4950569;28;20230;-78
2023/03/17 04:31:11;;;;;;;356.50;93.43;;;3.00;99.90;;;2.97;97.70;99392.84;4951985;28;20312;-78
2023/03/17 04:33:39;;;;;;;363.30;99.93;;;3.00;99.90;;;2.97;97.75;99385.00;4949854;28;20234;-79
2023/03/17 04:36:07;;;;;;;353.30;94.27;;;3.00;99.90;;;2.99;97.76;99394.66;4950356;28;20269;-79
2023/03/17 04:38:34;;;;;;;360.33;93.70;;;3.00;99.90;;;2.96;97.71;99394.56;4950794;28;20234;-79
2023/03/17 04:41:01;;;;;;;353.83;93.57;;;;;;;2.84;98.15;99400.41;4949595;28;20420;-79
2023/03/17 04:43:29;;;;;;;364.30;94.67;;;3.00;99.90;;;2.86;98.54;99409.16;4946093;28;20314;-78
2023/03/17 04:45:56;;;;;;;355.63;93.07;;;2.90;99.90;;;2.86;98.73;99413.50;4946932;28;20238;-78
2023/03/17 04:48:23;;;;;;;351.93;92.27;;;2.90;99.90;;;2.75;99.11;99418.47;4949645;28;20240;-78
2023/03/17 04:50:50;;;;;;;356.70;95.00;;;;;;;2.57;99.77;99428.44;4948364;28;20285;-78
2023/03/17 04:53:17;;;;;;;358.83;95.70;;;2.70;99.90;;;2.91;100.00;99463.22;4951140;28;20333;-78
2023/03/17 04:55:44;;;;;;;356.13;91.93;;;2.90;99.90;;;2.87;99.71;99457.03;4941350;28;20671;-78
2023/03/17 04:58:11;;;;;;;354.77;91.03;;;3.10;99.90;;;2.94;100.00;99474.63;4947857;28;20712;-78
2023/03/17 05:00:53;;;;;;;355.37;89.10;;;3.10;99.90;;;2.85;100.00;99480.50;4943358;28;20234;-78
2023/03/17 05:03:20;;;;;;;362.27;100.00;;;2.90;99.90;;;2.84;100.00;99477.84;4946985;28;20236;-78
2023/03/17 05:05:54;;;;;;;356.77;93.93;;;2.80;99.90;;;2.81;100.00;99476.03;4950511;28;20242;-79
2023/03/17 05:08:21;;;;;;;359.10;93.37;;;2.90;99.90;;;2.71;100.00;99475.78;4950061;28;20234;-78
2023/03/17 05:10:49;;;;;;;360.10;92.20;;;2.60;99.90;;;2.38;100.00;99479.25;4937814;28;20249;-78
2023/03/17 05:13:17;;;;;;;357.53;91.03;;;2.60;99.90;;;2.30;100.00;99499.06;4941412;28;20233;-78
2023/03/17 05:15:50;;;;;;;360.07;94.23;;;2.50;99.90;;;2.46;100.00;99497.72;4948969;28;20600;-78
2023/03/17 05:18:19;;;;;;;356.73;94.50;;;2.50;99.90;;;2.49;100.00;99492.59;4948868;28;20242;-78
2023/03/17 05:20:46;;;;;;;351.63;87.83;;;3.40;99.90;;;2.50;100.00;99497.84;4943594;28;20301;-78
2023/03/17 05:23:13;;;;;;;346.30;84.83;;;2.50;99.90;;;2.46;100.00;99498.63;4949497;28;20301;-78
2023/03/17 05:25:41;;;;;;;348.70;84.13;;;2.80;99.90;;;2.41;100.00;99508.03;4942507;28;20239;-78
2023/03/17 05:28:08;;;;;;;351.17;84.60;;;2.50;99.90;;;2.43;100.00;99513.31;4939513;28;20256;-78
2023/03/17 05:30:36;;;;;;;354.03;89.20;;;;;;;2.44;100.00;99513.34;4944902;28;20233;-78
2023/03/17 05:33:04;;;;;;;336.00;80.07;;;2.50;99.90;;;2.45;100.00;99516.84;4935944;28;20249;-78
2023/03/17 05:35:32;;;;;;;355.07;89.13;;;2.60;99.90;;;2.55;100.00;99547.56;4944673;28;20297;-78
2023/03/17 05:37:59;;;;;;;349.17;97.73;;;2.70;99.90;;;2.54;100.00;99553.63;4950947;28;20249;-78
2023/03/17 05:40:26;;;;;;;352.13;100.93;;;;;;;2.49;100.00;99548.28;4946403;28;20233;-78
2023/03/17 05:42:54;;;;;;;358.23;116.27;;;2.60;99.90;;;2.53;100.00;99559.69;4935487;28;20249;-78
2023/03/17 05:45:21;;;;;;;375.30;137.20;;;;;;;2.83;100.00;99583.13;4942797;28;20297;-78
2023/03/17 05:47:49;;;;;;;376.50;132.53;;;;;;;2.96;100.00;99595.66;4945138;28;20758;-78
2023/03/17 05:50:16;;;;;;;370.17;139.20;;;;;;;2.81;100.00;99587.44;4938484;28;20234;-78
2023/03/17 05:52:43;;;;;;;362.97;156.47;;;2.80;99.90;;;2.76;100.00;99586.44;4950996;28;20320;-78
2023/03/17 05:55:11;;;;;;;356.73;90.50;;;;;;;2.61;100.00;99583.41;4962150;28;20238;-78
2023/03/17 05:57:38;;;;;;;346.90;87.70;;;;;;;2.74;100.00;99578.56;4934153;28;20318;-77
2023/03/17 06:00:07;;;;;;;352.73;89.47;;;2.80;99.90;;;2.75;100.00;99579.44;4940859;28;20277;-76
2023/03/17 06:02:34;;;;;;;358.23;87.80;;;;;;;2.67;100.00;99579.22;4949581;28;20233;-77
2023/03/17 06:05:02;;;;;;;350.47;83.77;;;;;;;2.37;100.00;99575.75;4949573;28;20237;-77
2023/03/17 06:07:29;;;;;;;352.80;90.67;;;;;;;2.45;100.00;99571.63;4950787;28;20242;-77
2023/03/17 06:10:15;;;;;;;343.83;79.20;;;;;;;2.45;100.00;99582.06;4947231;28;20233;-77
2023/03/17 06:12:42;;;;;;;363.27;94.23;;;;;;;2.54;100.00;99587.53;4956642;28;20234;-78
2023/03/17 06:15:09;;;;;;;335.60;88.60;;;2.60;99.90;;;2.67;100.00;99604.44;4916670;28;20606;-77
2023/03/17 06:17:37;;;;;;;339.47;88.93;;;;;;;2.87;100.00;99627.66;4945226;28;20316;-78
2023/03/17 06:20:05;;;;;;;361.40;87.13;;;2.90;99.90;;;2.99;100.00;99634.91;4930335;29;20258;-78
2023/03/17 06:22:32;;;;;;;347.23;85.70;;;3.00;99.90;;;2.96;100.00;99626.13;4942935;28;20246;-77
2023/03/17 06:24:59;;;;;;;342.60;84.80;;;2.80;99.90;;;2.83;100.00;99620.56;4943923;28;20233;-76
2023/03/17 06:27:27;;;;;;;342.43;80.20;;;3.00;99.90;;;2.91;100.00;99627.72;4944931;28;20238;-78
2023/03/17 06:29:56;;;;;;;361.73;86.37;;;;;;;3.54;100.00;99686.84;4947351;28;20265;-79
2023/03/17 06:32:23;;;;;;;347.37;85.07;;;;;;;3.45;100.00;99665.72;4944457;28;20234;-77
2023/03/17 06:34:52;;;;;;;366.87;96.87;;;;;;;3.69;100.00;99675.00;4944594;28;20237;-79
2023/03/17 06:37:20;;;;;;;360.57;94.43;;;5.20;99.90;;;3.96;99.28;99690.50;4950515;28;20230;-79
2023/03/17 06:39:47;;;;;;;350.17;90.47;;;3.90;99.90;;;3.87;98.96;99672.81;4951445;28;20373;-79
2023/03/17 06:42:15;;;;;;;347.20;90.33;;;;;;;3.72;99.55;99669.84;4954204;28;20233;-81
2023/03/17 06:44:44;;;;;;;356.27;91.63;;;;;;;3.84;98.91;99664.91;4954399;28;20245;-80
2023/03/17 06:47:12;;;;;;;361.37;94.90;;;;;;;3.97;98.82;99673.97;4949029;28;20306;-79
2023/03/17 06:49:39;;;;;;;342.67;90.43;;;;;;;4.20;98.54;99687.56;4957488;28;20345;-80
2023/03/17 06:52:07;;;;;;;348.30;89.23;;;;;;;4.26;97.52;99685.09;4954716;28;20257;-80
2023/03/17 06:54:35;;;;;;;359.07;93.83;;;;;;;4.39;97.04;99684.50;4960575;28;20237;-80
2023/03/17 06:57:02;;;;;;;355.47;94.87;;;;;;;4.55;96.47;99699.69;4956533;28;20289;-80
2023/03/17 06:59:30;;;;;;;370.40;100.47;;;;;;;4.64;95.24;99692.03;4956130;28;20284;-78
2023/03/17 07:01:58;;;;;;;342.60;94.60;;;;;;;4.73;95.00;99686.97;4955667;28;20245;-78
2023/03/17 07:04:26;;;;;;;355.70;99.23;;;;;;;4.74;95.46;99686.13;4937787;28;20246;-78
2023/03/17 07:06:53;;;;;;;363.97;105.50;;;;;;;4.95;94.33;99682.16;4950585;28;20249;-78
2023/03/17 07:09:20;;;;;;;362.93;104.50;;;;;;;5.02;93.74;99682.31;4954603;28;20250;-78
2023/03/17 07:11:48;;;;;;;365.73;111.60;;;;;;;5.11;92.91;99677.22;4951617;28;20238;-77
2023/03/17 07:14:16;;;;;;;361.27;106.33;;;;;;;5.12;93.52;99685.97;4942765;28;20237;-78
2023/03/17 07:16:43;;;;;;;355.43;99.47;;;;;;;5.14;92.79;99673.78;4954627;28;20241;-78
2023/03/17 07:19:11;;;;;;;448.50;154.83;;;;;;;5.16;92.58;99666.84;4929677;28;20420;-78
2023/03/17 07:21:39;;;;;;;358.13;101.03;;;;;;;5.17;92.63;99658.13;4965300;28;20230;-78
2023/03/17 07:24:07;;;;;;;372.97;115.77;;;5.20;99.90;;;5.19;92.46;99664.28;4953910;28;20249;-77
2023/03/17 07:26:34;;;;;;;359.23;111.60;;;;;;;5.23;92.19;99652.13;4948634;28;20329;-76
2023/03/17 07:29:02;;;;;;;353.97;106.30;;;;;;;5.31;91.87;99666.25;4952002;28;20246;-78
2023/03/17 07:31:29;;;;;;;363.80;112.03;;;;;;;5.29;91.31;99652.25;4955328;28;20237;-78
2023/03/17 07:33:57;;;;;;;361.43;113.40;;;;;;;5.39;91.56;99662.03;4953780;28;20694;-76
2023/03/17 07:36:25;;;;;;;366.43;112.50;;;;;;;5.43;91.07;99656.00;4940161;28;20324;-79
2023/03/17 07:38:52;;;;;;;358.70;112.63;;;;;;;5.55;90.47;99657.94;4951157;28;20237;-76
2023/03/17 07:41:21;;;;;;;377.83;124.23;;;;;;;5.60;90.59;99662.41;4948783;28;20311;-78
2023/03/17 07:43:48;;;;;;;367.07;123.63;;;;;;;5.71;89.90;99670.44;4939225;28;20233;-78
2023/03/17 07:46:16;;;;;;;362.87;112.50;;;;;;;5.67;90.20;99661.63;4948547;28;20245;-78
2023/03/17 07:48:43;;;;;;;359.63;112.87;;;;;;;5.93;89.31;99669.06;4948570;28;20692;-78
2023/03/17 07:51:17;;;;;;;363.30;118.83;;;6.00;99.90;;;6.04;88.44;99647.38;4954214;28;20769;-78
2023/03/17 07:53:45;;;;;;;365.00;118.57;;;;;;;6.20;87.98;99645.84;4951787;28;20324;-77
2023/03/17 07:56:13;;;;;;;360.60;122.40;;;;;;;6.30;87.83;99652.97;4953757;28;20265;-78
2023/03/17 07:58:40;;;;;;;373.47;128.60;;;;;;;6.37;86.64;99631.19;4954024;28;20714;-78
2023/03/17 08:01:08;;;;;;;374.20;133.60;;;;;;;6.38;86.34;99618.94;4952110;28;20234;-78
2023/03/17 08:03:36;;;;;;;367.40;133.60;;;;;;;6.48;85.89;99606.81;4954468;28;20281;-78
2023/03/17 08:06:07;;;;;;;392.37;140.27;;;6.60;99.90;;;6.60;86.08;99621.00;4952853;28;20724;-79
2023/03/17 08:08:35;;;;;;;379.90;129.67;;;;;;;6.63;85.48;99610.53;4953607;28;20325;-78
2023/03/17 08:11:04;;;;;;;356.40;127.60;;;6.60;99.90;;;6.61;85.06;99588.63;4950321;28;20292;-78
2023/03/17 08:13:32;;;;;;;355.87;133.87;;;;;;;6.78;85.12;99591.44;4949571;28;20249;-78
2023/03/17 08:16:07;;;;;;;365.53;134.07;;;6.80;99.90;;;6.86;84.14;99578.38;4943522;28;20261;-77
2023/03/17 08:18:47;;;;;;;364.43;132.97;;;6.90;99.90;;;7.02;83.97;99585.53;4947496;28;20242;-78
2023/03/17 08:21:15;;;;;;;372.37;144.53;;;;;;;7.06;83.37;99561.94;4948230;29;20309;-78
2023/03/17 08:23:43;;;;;;;361.90;137.10;;;;;;;7.15;83.06;99555.88;4945909;28;20238;-78
2023/03/17 08:26:12;;;;;;;362.20;139.07;;;;;;;7.28;82.86;99563.00;4946501;28;20253;-78
2023/03/17 08:28:40;;;;;;;370.03;148.23;;;;;;;7.48;82.67;99557.00;4951504;28;20717;-78
2023/03/17 08:31:12;;;;;;;368.13;148.63;;;7.40;99.90;;;7.42;81.46;99525.41;4949721;28;20264;-77
2023/03/17 08:33:41;;;;;;;403.07;164.97;;;7.50;99.90;;;7.60;81.60;99529.03;4951606;28;20233;-77
2023/03/17 08:36:10;;;;;;;370.77;152.93;;;7.60;99.90;;;7.72;80.91;99507.16;4944991;28;20653;-77
2023/03/17 08:38:38;;;;;;;377.37;154.00;;;;;;;7.91;80.02;99493.25;4938655;29;20686;-76
2023/03/17 08:41:11;;;;;;;372.23;152.50;;;8.00;99.90;;;8.08;78.87;99468.75;4941549;28;20314;-76
2023/03/17 08:43:39;;;;;;;370.37;151.83;;;8.10;99.90;;;8.08;78.18;99426.63;4931821;28;20237;-77
2023/03/17 08:46:21;;;;;;;371.07;149.80;;;8.20;99.90;;;8.18;77.73;99399.44;4941415;28;20658;-77
2023/03/17 08:48:51;;;;;;;385.90;179.27;;;8.40;99.90;;;8.43;78.34;99438.16;4940087;28;20257;-76
2023/03/17 08:51:21;;;;;;;384.10;178.47;;;8.70;99.90;;;8.81;77.26;99430.28;4943983;28;20268;-78
2023/03/17 08:53:51;;;;;;;395.27;189.53;;;8.90;99.90;;;8.93;77.28;99422.38;4946365;28;20237;-78
2023/03/17 08:56:19;;;;;;;395.87;190.03;;;;;;;8.93;76.24;99379.31;4941172;28;20275;-76
2023/03/17 08:58:47;;;;;;;376.27;182.67;;;8.90;99.90;;;8.90;76.04;99363.50;4941237;28;20238;-77
2023/03/17 09:01:15;;;;;;;385.00;196.07;;;8.90;99.90;;;9.00;75.96;99352.03;4932271;29;20320;-77
2023/03/17 09:03:44;;;;;;;395.13;201.47;;;;;;;9.06;77.04;99386.31;4943065;28;20298;-78
2023/03/17 09:06:12;;;;;;;373.58;188.40;;;9.00;99.90;;;9.08;75.52;99342.34;4943872;28;20254;-78
2023/03/17 09:08:43;;;;;;;382.17;205.13;;;9.10;99.90;;;9.25;75.31;99326.50;4944180;28;20233;-78
2023/03/17 09:11:15;;;;;;;384.60;205.98;;;9.20;99.90;;;9.49;75.35;99336.97;4949528;28;20285;-78
2023/03/17 09:13:43;;;;;;;398.77;208.77;;;9.50;99.90;;;9.67;73.96;99291.13;4944694;28;20270;-78
2023/03/17 09:16:15;;;;;;;392.27;213.05;;;9.50;99.90;;;9.52;72.64;99217.31;4944753;28;20234;-78
2023/03/17 09:18:43;;;;;;;391.00;219.30;;;9.60;99.90;;;9.75;73.18;99249.72;4939517;28;20274;-78
2023/03/17 09:21:12;;;;;;;392.15;218.18;;;9.50;99.90;;;9.60;72.86;99211.13;4951184;28;20230;-78
2023/03/17 09:23:40;;;;;;;390.55;225.13;;;9.60;99.90;;;9.70;71.92;99171.44;4941567;28;20665;-78
2023/03/17 09:26:07;;;;;;;391.08;218.98;;;10.00;99.90;;;10.20;72.57;99252.94;4949911;28;20236;-77
2023/03/17 09:28:36;;;;;;;391.77;238.65;;;10.30;99.90;;;10.52;71.50;99202.47;4950309;28;20245;-78
2023/03/17 09:31:10;;;;;;;395.80;238.27;;;10.30;99.90;;;10.36;70.74;99134.78;4948826;28;20320;-78
2023/03/17 09:33:41;;;;;;;388.80;242.05;;;10.50;99.90;;;10.61;69.99;99135.41;4951086;28;20233;-78
2023/03/17 09:36:09;;;;;;;399.17;256.70;;;10.50;99.90;;;10.46;70.58;99126.75;4939827;28;20545;-78
2023/03/17 09:38:37;;;;;;;391.63;247.35;;;;;;;10.31;70.26;99087.25;4950057;28;20237;-77
2023/03/17 09:41:19;;;;;;;396.30;257.63;;;;;;;10.58;71.29;99160.97;4947046;28;20265;-77
2023/03/17 09:44:31;;;;;;;401.20;262.27;;;10.50;99.90;;;10.61;70.88;99148.63;4947151;28;20284;-78
2023/03/17 09:47:27;;;;;;;397.98;265.88;;;10.80;99.90;;;10.94;70.51;99156.16;4945979;28;20256;-79
2023/03/17 09:50:02;;;;;;;399.33;281.88;;;10.90;99.90;;;10.87;69.24;99064.56;4947843;28;20329;-78
2023/03/17 09:52:36;;;;;;;415.35;285.20;;;10.80;99.90;;;10.86;69.83;99057.50;4945076;28;20267;-79
2023/03/17 09:55:07;;;;;;;411.08;305.08;;;10.90;99.90;;;10.96;69.34;99045.03;4946033;28;20289;-78
2023/03/17 09:57:37;;;;;;;401.45;301.33;;;11.00;99.90;;;11.05;69.25;99068.69;4939586;28;20317;-77
2023/03/17 10:00:21;;;;;;;417.67;322.75;;;11.00;99.90;;;11.04;68.33;99006.13;4940735;28;20245;-77
2023/03/17 10:02:49;;;;;;;410.95;334.55;;;;;;;11.08;69.05;99021.03;4945889;28;20264;-77
2023/03/17 10:05:20;;;;;;;404.35;320.05;;;11.20;99.90;;;11.27;69.17;99048.09;4946949;28;20301;-78
2023/03/17 10:08:18;;;;;;;419.27;338.02;;;11.20;99.90;;;11.20;68.81;98997.91;4950692;28;20245;-76
2023/03/17 10:11:24;;;;;;;416.08;335.60;;;11.40;99.90;;;11.62;70.31;99084.56;4941186;28;20234;-77
2023/03/17 10:14:22;;;;;;;423.17;357.65;;;11.30;99.90;;;11.33;69.70;99032.97;4936216;28;20308;-78
2023/03/17 10:17:15;;;;;;;419.70;363.05;;;11.50;99.90;;;11.34;68.89;98991.50;4938523;28;20234;-77
2023/03/17 10:19:58;;;;;;;441.98;366.55;;;11.40;99.90;;;11.46;67.77;98935.72;4943629;28;20249;-77
2023/03/17 10:22:57;;;;;;;444.52;385.00;;;11.70;99.90;;;11.68;67.83;98942.34;4939769;29;20245;-77
2023/03/17 10:25:36;;;;;;;432.90;377.55;;;11.70;99.90;;;11.65;67.55;98902.69;4942644;28;20602;-78
2023/03/17 10:28:20;;;;;;;446.13;395.35;;;11.70;99.90;;;11.64;66.92;98863.00;4949182;28;20232;-77
2023/03/17 10:30:48;;;;;;;427.45;377.38;;;;;;;11.71;65.75;98806.41;4948054;28;20308;-76
2023/03/17 10:33:15;;;;;;;424.65;377.90;;;;;;;11.70;65.36;98773.75;4947872;28;20607;-76
2023/03/17 10:35:43;;;;;;;430.67;384.35;;;;;;;11.50;64.96;98713.28;4951292;28;20249;-78